createdAt,value
2022-11-27T00:01:24.966Z,100321.66
2022-11-27T00:03:53.408Z,100318.41
2022-11-27T00:06:23.703Z,100300.91
2022-11-27T00:08:52.115Z,100296.19
2022-11-27T00:11:22.440Z,100292.69
2022-11-27T00:13:51.080Z,100293.38
2022-11-27T00:16:20.328Z,100298.56
2022-11-27T00:18:50.186Z,100291.00
2022-11-27T00:21:22.895Z,100287.63
2022-11-27T00:23:51.056Z,100286.19
2022-11-27T00:26:19.767Z,100295.59
2022-11-27T00:28:48.013Z,100285.03
2022-11-27T00:31:18.646Z,100275.84
2022-11-27T00:33:47.024Z,100279.66
2022-11-27T00:36:17.263Z,100288.97
2022-11-27T00:38:45.429Z,100291.53
2022-11-27T00:41:16.640Z,100290.34
2022-11-27T00:43:46.181Z,100302.00
2022-11-27T00:46:14.351Z,100301.66
2022-11-27T00:48:45.532Z,100299.84
2022-11-27T00:51:18.728Z,100292.63
2022-11-27T00:53:47.268Z,100292.28
2022-11-27T00:56:18.309Z,100294.72
2022-11-27T00:58:46.769Z,100289.16
2022-11-27T01:01:18.035Z,100297.00
2022-11-27T01:03:46.861Z,100296.00
2022-11-27T01:06:15.715Z,100290.50
2022-11-27T01:08:45.681Z,100288.41
2022-11-27T01:11:16.370Z,100277.72
2022-11-27T01:13:47.360Z,100278.06
2022-11-27T01:16:18.146Z,100282.00
2022-11-27T01:18:48.303Z,100282.47
2022-11-27T01:21:19.099Z,100274.75
2022-11-27T01:23:49.296Z,100275.56
2022-11-27T01:26:19.030Z,100269.88
2022-11-27T01:28:47.702Z,100271.66
2022-11-27T01:31:18.028Z,100268.53
2022-11-27T01:33:47.074Z,100262.13
2022-11-27T01:36:17.006Z,100245.50
2022-11-27T01:38:45.262Z,100254.50
2022-11-27T01:41:17.993Z,100244.69
2022-11-27T01:43:47.870Z,100245.72
2022-11-27T01:46:27.460Z,100254.56
2022-11-27T01:49:00.384Z,100252.13
2022-11-27T01:51:28.778Z,100243.00
2022-11-27T01:53:57.411Z,100241.66
2022-11-27T01:56:29.299Z,100240.41
2022-11-27T01:59:00.170Z,100238.25
2022-11-27T02:01:28.168Z,100236.81
2022-11-27T02:04:00.203Z,100233.41
2022-11-27T02:06:28.830Z,100227.22
2022-11-27T02:08:57.489Z,100221.84
2022-11-27T02:11:37.416Z,100228.69
2022-11-27T02:14:12.078Z,100219.97
2022-11-27T02:16:45.479Z,100205.28
2022-11-27T02:19:25.975Z,100203.03
2022-11-27T02:21:59.204Z,100207.38
2022-11-27T02:24:50.200Z,100221.59
2022-11-27T02:27:44.573Z,100217.31
2022-11-27T02:30:14.435Z,100216.63
2022-11-27T02:32:53.126Z,100214.19
2022-11-27T02:35:29.437Z,100209.47
2022-11-27T02:38:01.897Z,100203.41
2022-11-27T02:40:35.727Z,100192.66
2022-11-27T02:43:09.040Z,100189.88
2022-11-27T02:45:41.204Z,100188.50
2022-11-27T02:48:10.375Z,100186.00
2022-11-27T02:50:40.540Z,100182.72
2022-11-27T02:53:12.544Z,100176.44
2022-11-27T02:55:41.714Z,100179.38
2022-11-27T02:58:11.849Z,100178.16
2022-11-27T03:00:44.492Z,100168.91
2022-11-27T03:03:17.787Z,100165.31
2022-11-27T03:05:49.653Z,100165.69
2022-11-27T03:08:23.793Z,100159.59
2022-11-27T03:10:58.831Z,100158.78
2022-11-27T03:13:27.288Z,100148.22
2022-11-27T03:16:06.214Z,100146.97
2022-11-27T03:18:40.823Z,100143.06
2022-11-27T03:21:16.693Z,100145.59
2022-11-27T03:23:45.143Z,100135.13
2022-11-27T03:26:13.290Z,100139.69
2022-11-27T03:28:42.407Z,100145.41
2022-11-27T03:31:12.181Z,100147.88
2022-11-27T03:33:40.496Z,100139.78
2022-11-27T03:36:17.029Z,100132.84
2022-11-27T03:38:46.672Z,100119.00
2022-11-27T03:41:22.672Z,100118.53
2022-11-27T03:44:00.156Z,100114.25
2022-11-27T03:46:44.725Z,100106.13
2022-11-27T03:49:22.548Z,100128.28
2022-11-27T03:51:59.045Z,100121.88
2022-11-27T03:54:42.211Z,100120.53
2022-11-27T03:57:16.322Z,100114.09
2022-11-27T03:59:46.680Z,100110.34
2022-11-27T04:02:17.985Z,100114.78
2022-11-27T04:04:46.117Z,100108.97
2022-11-27T04:07:18.237Z,100107.75
2022-11-27T04:09:46.467Z,100109.22
2022-11-27T04:12:14.825Z,100112.41
2022-11-27T04:14:42.781Z,100113.41
2022-11-27T04:17:10.770Z,100114.41
2022-11-27T04:19:40.103Z,100115.88
2022-11-27T04:22:08.496Z,100106.44
2022-11-27T04:24:36.640Z,100110.81
2022-11-27T04:27:07.714Z,100103.38
2022-11-27T04:29:37.361Z,100102.38
2022-11-27T04:32:05.538Z,100105.06
2022-11-27T04:34:33.964Z,100107.13
2022-11-27T04:37:03.634Z,100105.94
2022-11-27T04:39:31.915Z,100100.00
2022-11-27T04:41:59.885Z,100100.69
2022-11-27T04:44:27.824Z,100106.06
2022-11-27T04:46:56.157Z,100099.13
2022-11-27T04:49:24.145Z,100096.41
2022-11-27T04:51:52.308Z,100092.72
2022-11-27T04:54:22.087Z,100091.63
2022-11-27T04:56:50.224Z,100083.88
2022-11-27T04:59:21.086Z,100087.69
2022-11-27T05:01:49.152Z,100080.47
2022-11-27T05:04:17.451Z,100074.47
2022-11-27T05:06:45.607Z,100075.50
2022-11-27T05:09:14.111Z,100073.84
2022-11-27T05:11:43.509Z,100068.75
2022-11-27T05:14:18.187Z,100060.31
2022-11-27T05:16:48.516Z,100054.91
2022-11-27T05:19:18.293Z,100058.13
2022-11-27T05:21:47.467Z,100061.34
2022-11-27T05:24:16.702Z,100054.13
2022-11-27T05:26:46.212Z,100051.66
2022-11-27T05:29:15.311Z,100049.38
2022-11-27T05:31:43.689Z,100047.78
2022-11-27T05:34:12.000Z,100054.28
2022-11-27T05:36:40.226Z,100049.91
2022-11-27T05:39:09.966Z,100044.88
2022-11-27T05:41:45.833Z,100044.47
2022-11-27T05:44:14.649Z,100047.75
2022-11-27T05:46:44.648Z,100030.84
2022-11-27T05:49:14.392Z,100036.88
2022-11-27T05:51:49.164Z,100036.41
2022-11-27T05:54:19.078Z,100038.84
2022-11-27T05:56:48.645Z,100033.50
2022-11-27T05:59:16.766Z,100029.34
2022-11-27T06:01:49.430Z,100045.94
2022-11-27T06:04:17.581Z,100044.09
2022-11-27T06:06:45.709Z,100042.53
2022-11-27T06:09:13.937Z,100048.28
2022-11-27T06:11:45.018Z,100041.00
2022-11-27T06:14:14.435Z,100037.44
2022-11-27T06:16:42.449Z,100042.53
2022-11-27T06:19:10.466Z,100033.97
2022-11-27T06:21:38.764Z,100046.91
2022-11-27T06:24:07.324Z,100042.72
2022-11-27T06:26:35.735Z,100048.31
2022-11-27T06:29:03.970Z,100050.50
2022-11-27T06:31:34.735Z,100052.69
2022-11-27T06:34:03.666Z,100049.19
2022-11-27T06:36:33.648Z,100052.06
2022-11-27T06:39:02.094Z,100048.38
2022-11-27T06:41:30.670Z,100049.84
2022-11-27T06:44:00.800Z,100060.66
2022-11-27T06:46:29.938Z,100056.84
2022-11-27T06:49:00.097Z,100053.16
2022-11-27T06:51:30.537Z,100039.94
2022-11-27T06:54:00.985Z,100054.63
2022-11-27T06:56:32.210Z,100055.34
2022-11-27T06:59:01.900Z,100047.38
2022-11-27T07:01:31.895Z,100040.09
2022-11-27T07:04:01.595Z,100036.41
2022-11-27T07:06:29.633Z,100035.31
2022-11-27T07:08:58.145Z,100037.75
2022-11-27T07:11:28.826Z,100019.84
2022-11-27T07:13:58.484Z,100021.75
2022-11-27T07:16:27.593Z,100028.53
2022-11-27T07:18:57.225Z,100027.75
2022-11-27T07:21:29.572Z,100035.19
2022-11-27T07:23:57.844Z,100035.69
2022-11-27T07:26:27.990Z,100034.31
2022-11-27T07:28:56.531Z,100028.66
2022-11-27T07:31:26.606Z,100044.53
2022-11-27T07:33:54.948Z,100037.75
2022-11-27T07:36:24.317Z,100040.53
2022-11-27T07:38:54.205Z,100031.03
2022-11-27T07:41:22.273Z,100026.59
2022-11-27T07:43:50.218Z,100030.16
2022-11-27T07:46:20.736Z,100037.22
2022-11-27T07:48:49.056Z,100044.22
2022-11-27T07:51:19.297Z,100031.09
2022-11-27T07:53:48.617Z,100028.69
2022-11-27T07:56:17.951Z,100026.91
2022-11-27T07:58:46.173Z,100015.94
2022-11-27T08:01:16.366Z,100012.97
2022-11-27T08:03:45.309Z,100019.66
2022-11-27T08:06:19.612Z,100023.41
2022-11-27T08:08:47.719Z,100023.25
2022-11-27T08:11:25.751Z,100022.31
2022-11-27T08:13:58.505Z,100020.84
2022-11-27T08:16:28.695Z,100018.72
2022-11-27T08:18:57.003Z,100020.31
2022-11-27T08:21:25.446Z,100015.25
2022-11-27T08:23:53.528Z,100011.09
2022-11-27T08:26:23.360Z,100007.78
2022-11-27T08:28:53.715Z,100010.28
2022-11-27T08:31:22.666Z,99995.91
2022-11-27T08:33:50.746Z,100006.50
2022-11-27T08:36:18.734Z,100000.88
2022-11-27T08:38:47.147Z,99997.91
2022-11-27T08:41:15.268Z,99989.03
2022-11-27T08:43:44.610Z,99991.72
2022-11-27T08:46:12.921Z,99984.13
2022-11-27T08:48:41.983Z,99982.53
2022-11-27T08:51:12.019Z,99996.22
2022-11-27T08:53:40.080Z,99982.91
2022-11-27T08:56:10.801Z,99970.13
2022-11-27T08:58:41.189Z,99974.44
2022-11-27T09:01:13.082Z,99969.25
2022-11-27T09:03:41.528Z,99971.06
2022-11-27T09:06:10.888Z,99954.25
2022-11-27T09:08:42.943Z,99957.94
2022-11-27T09:11:12.380Z,99953.34
2022-11-27T09:13:40.765Z,99953.09
2022-11-27T09:16:12.860Z,99943.19
2022-11-27T09:18:41.411Z,99949.69
2022-11-27T09:21:11.153Z,99947.97
2022-11-27T09:23:39.806Z,99943.81
2022-11-27T09:26:12.131Z,99941.69
2022-11-27T09:28:41.006Z,99936.00
2022-11-27T09:31:14.068Z,99930.03
2022-11-27T09:33:43.403Z,99931.38
2022-11-27T09:36:13.552Z,99935.97
2022-11-27T09:38:42.572Z,99920.50
2022-11-27T09:41:39.737Z,99923.09
2022-11-27T09:44:23.311Z,99935.41
2022-11-27T09:46:56.585Z,99934.34
2022-11-27T09:49:28.886Z,99929.63
2022-11-27T09:52:03.087Z,99919.13
2022-11-27T09:54:36.462Z,99917.41
2022-11-27T09:57:06.680Z,99915.84
2022-11-27T09:59:43.585Z,99912.69
2022-11-27T10:02:19.156Z,99912.31
2022-11-27T10:05:12.477Z,99913.22
2022-11-27T10:07:50.168Z,99900.41
2022-11-27T10:10:33.242Z,99895.59
2022-11-27T10:13:11.153Z,99859.38
2022-11-27T10:15:45.314Z,99883.63
2022-11-27T10:18:21.572Z,99884.81
2022-11-27T10:20:52.380Z,99879.09
2022-11-27T10:23:30.661Z,99874.28
2022-11-27T10:26:05.114Z,99872.75
2022-11-27T10:28:42.076Z,99877.28
2022-11-27T10:31:14.708Z,99875.63
2022-11-27T10:33:48.738Z,99866.53
2022-11-27T10:36:20.016Z,99858.28
2022-11-27T10:38:49.390Z,99854.44
2022-11-27T10:41:48.072Z,99859.66
2022-11-27T10:44:27.731Z,99856.09
2022-11-27T10:47:00.701Z,99848.03
2022-11-27T10:49:30.476Z,99835.13
2022-11-27T10:51:58.621Z,99824.47
2022-11-27T10:54:33.368Z,99825.97
2022-11-27T10:57:12.941Z,99823.91
2022-11-27T10:59:49.954Z,99813.44
2022-11-27T11:02:30.179Z,99818.53
2022-11-27T11:05:30.732Z,99817.03
2022-11-27T11:07:57.965Z,99814.16
2022-11-27T11:10:30.567Z,99814.47
2022-11-27T11:13:17.000Z,99819.34
2022-11-27T11:15:51.874Z,99812.25
2022-11-27T11:18:21.281Z,99815.47
2022-11-27T11:20:52.937Z,99800.81
2022-11-27T11:23:31.911Z,99796.88
2022-11-27T11:26:05.330Z,99799.91
2022-11-27T11:28:39.530Z,99798.31
2022-11-27T11:31:13.617Z,99804.50
2022-11-27T11:33:51.291Z,99793.22
2022-11-27T11:36:21.241Z,99784.56
2022-11-27T11:38:50.101Z,99772.38
2022-11-27T11:41:19.136Z,99767.56
2022-11-27T11:43:59.621Z,99773.66
2022-11-27T11:46:30.049Z,99765.13
2022-11-27T11:49:03.297Z,99754.72
2022-11-27T11:51:52.418Z,99759.31
2022-11-27T11:54:36.574Z,99747.13
2022-11-27T11:57:13.957Z,99751.56
2022-11-27T11:59:51.638Z,99736.63
2022-11-27T12:02:39.315Z,99732.28
2022-11-27T12:05:24.694Z,99731.66
2022-11-27T12:08:12.549Z,99717.97
2022-11-27T12:10:54.624Z,99708.53
2022-11-27T12:13:36.117Z,99713.91
2022-11-27T12:16:10.760Z,99723.53
2022-11-27T12:18:56.350Z,99709.34
2022-11-27T12:21:30.200Z,99709.91
2022-11-27T12:24:09.138Z,99707.66
2022-11-27T12:26:49.637Z,99698.03
2022-11-27T12:29:44.379Z,99682.59
2022-11-27T12:32:26.173Z,99683.53
2022-11-27T12:35:07.857Z,99667.00
2022-11-27T12:37:48.835Z,99668.94
2022-11-27T12:40:51.325Z,99662.75
2022-11-27T12:43:25.874Z,99663.56
2022-11-27T12:46:00.372Z,99648.50
2022-11-27T12:48:36.174Z,99649.94
2022-11-27T12:51:10.833Z,99648.09
2022-11-27T12:53:44.374Z,99647.19
2022-11-27T12:56:22.100Z,99641.91
2022-11-27T12:58:54.234Z,99635.75
2022-11-27T13:01:29.007Z,99626.13
2022-11-27T13:04:07.366Z,99623.44
2022-11-27T13:06:47.730Z,99624.94
2022-11-27T13:09:26.404Z,99615.66
2022-11-27T13:11:57.595Z,99605.03
2022-11-27T13:14:27.866Z,99602.59
2022-11-27T13:17:02.147Z,99593.84
2022-11-27T13:19:34.779Z,99606.28
2022-11-27T13:22:07.466Z,99603.09
2022-11-27T13:24:35.740Z,99600.69
2022-11-27T13:27:10.131Z,99601.75
2022-11-27T13:29:44.137Z,99611.47
2022-11-27T13:32:22.218Z,99606.28
2022-11-27T13:34:52.673Z,99610.72
2022-11-27T13:37:29.671Z,99608.09
2022-11-27T13:40:04.090Z,99594.63
2022-11-27T13:42:37.326Z,99598.06
2022-11-27T13:45:11.274Z,99600.94
2022-11-27T13:47:43.526Z,99603.44
2022-11-27T13:50:14.169Z,99600.06
2022-11-27T13:52:54.739Z,99600.03
2022-11-27T13:55:27.604Z,99600.28
2022-11-27T13:57:59.409Z,99587.19
2022-11-27T14:00:36.817Z,99584.63
2022-11-27T14:03:06.120Z,99585.47
2022-11-27T14:05:41.105Z,99584.63
2022-11-27T14:08:21.707Z,99579.31
2022-11-27T14:10:53.827Z,99583.59
2022-11-27T14:13:33.652Z,99579.06
2022-11-27T14:16:04.962Z,99573.03
2022-11-27T14:18:33.267Z,99558.81
2022-11-27T14:21:04.586Z,99562.00
2022-11-27T14:23:34.844Z,99569.84
2022-11-27T14:26:14.658Z,99565.59
2022-11-27T14:28:47.017Z,99566.47
2022-11-27T14:31:24.193Z,99554.22
2022-11-27T14:34:16.111Z,99558.59
2022-11-27T14:36:40.735Z,99555.81
2022-11-27T14:39:09.097Z,99550.56
2022-11-27T14:41:37.255Z,99547.06
2022-11-27T14:44:15.260Z,99539.13
2022-11-27T14:46:43.456Z,99533.72
2022-11-27T14:49:19.578Z,99541.78
2022-11-27T14:51:48.480Z,99547.88
2022-11-27T14:54:21.524Z,99538.81
2022-11-27T14:56:53.702Z,99542.53
2022-11-27T14:59:25.425Z,99546.81
2022-11-27T15:02:02.543Z,99542.31
2022-11-27T15:04:35.451Z,99541.38
2022-11-27T15:07:06.765Z,99548.31
2022-11-27T15:09:37.118Z,99563.88
2022-11-27T15:12:14.649Z,99569.06
2022-11-27T15:14:53.561Z,99568.69
2022-11-27T15:17:27.389Z,99565.88
2022-11-27T15:19:56.827Z,99581.16
2022-11-27T15:22:25.588Z,99567.81
2022-11-27T15:25:00.206Z,99559.06
2022-11-27T15:27:28.699Z,99586.41
2022-11-27T15:30:14.169Z,99584.81
2022-11-27T15:32:51.557Z,99580.09
2022-11-27T15:35:25.381Z,99591.44
2022-11-27T15:37:54.688Z,99595.56
2022-11-27T15:40:31.121Z,99580.41
2022-11-27T15:42:59.203Z,99574.13
2022-11-27T15:45:32.493Z,99577.41
2022-11-27T15:48:02.709Z,99580.03
2022-11-27T15:50:31.499Z,99584.31
2022-11-27T15:53:00.975Z,99596.31
2022-11-27T15:55:29.136Z,99588.22
2022-11-27T15:57:57.189Z,99588.91
2022-11-27T16:00:26.094Z,99589.38
2022-11-27T16:02:56.062Z,99579.53
2022-11-27T16:05:24.157Z,99582.00
2022-11-27T16:07:55.180Z,99571.25
2022-11-27T16:10:23.802Z,99580.34
2022-11-27T16:12:55.146Z,99575.53
2022-11-27T16:15:25.765Z,99581.34
2022-11-27T16:17:57.913Z,99574.75
2022-11-27T16:20:26.496Z,99565.63
2022-11-27T16:22:54.867Z,99565.47
2022-11-27T16:25:22.826Z,99547.38
2022-11-27T16:27:50.895Z,99553.31
2022-11-27T16:30:20.155Z,99552.50
2022-11-27T16:32:48.100Z,99560.16
2022-11-27T16:35:17.805Z,99548.13
2022-11-27T16:37:47.819Z,99543.44
2022-11-27T16:40:16.750Z,99537.50
2022-11-27T16:42:44.678Z,99537.72
2022-11-27T16:45:12.895Z,99549.13
2022-11-27T16:47:40.896Z,99544.66
2022-11-27T16:50:10.408Z,99550.28
2022-11-27T16:52:39.739Z,99549.72
2022-11-27T16:55:08.404Z,99546.91
2022-11-27T16:57:36.577Z,99535.63
2022-11-27T17:00:06.247Z,99539.84
2022-11-27T17:02:35.643Z,99542.94
2022-11-27T17:05:04.182Z,99550.75
2022-11-27T17:07:32.228Z,99541.69
2022-11-27T17:10:02.738Z,99547.09
2022-11-27T17:12:30.822Z,99552.72
2022-11-27T17:14:59.274Z,99545.78
2022-11-27T17:17:27.415Z,99543.22
2022-11-27T17:20:00.441Z,99540.88
2022-11-27T17:22:30.612Z,99541.88
2022-11-27T17:24:58.938Z,99543.41
2022-11-27T17:27:28.589Z,99562.22
2022-11-27T17:29:56.685Z,99555.38
2022-11-27T17:32:26.129Z,99553.28
2022-11-27T17:34:54.282Z,99559.13
2022-11-27T17:37:24.863Z,99556.06
2022-11-27T17:39:53.039Z,99570.47
2022-11-27T17:42:22.944Z,99574.03
2022-11-27T17:44:52.607Z,99579.50
2022-11-27T17:47:21.176Z,99581.25
2022-11-27T17:49:49.301Z,99584.38
2022-11-27T17:52:17.578Z,99586.69
2022-11-27T17:54:45.679Z,99590.50
2022-11-27T17:57:13.971Z,99590.56
2022-11-27T17:59:44.748Z,99586.16
2022-11-27T18:02:14.275Z,99584.72
2022-11-27T18:04:42.328Z,99580.47
2022-11-27T18:07:10.344Z,99595.09
2022-11-27T18:09:38.996Z,99588.16
2022-11-27T18:12:08.613Z,99581.72
2022-11-27T18:14:37.004Z,99572.97
2022-11-27T18:17:07.134Z,99568.59
2022-11-27T18:19:36.700Z,99585.66
2022-11-27T18:22:04.625Z,99588.38
2022-11-27T18:24:32.727Z,99590.00
2022-11-27T18:27:09.163Z,99589.63
2022-11-27T18:29:38.858Z,99597.81
2022-11-27T18:32:07.660Z,99599.63
2022-11-27T18:34:37.316Z,99605.56
2022-11-27T18:37:06.407Z,99603.72
2022-11-27T18:39:35.302Z,99602.47
2022-11-27T18:42:05.085Z,99596.69
2022-11-27T18:44:33.864Z,99597.00
2022-11-27T18:47:04.373Z,99592.09
2022-11-27T18:49:32.284Z,99596.47
2022-11-27T18:52:01.673Z,99602.56
2022-11-27T18:54:30.273Z,99603.88
2022-11-27T18:56:58.714Z,99600.44
2022-11-27T18:59:27.591Z,99615.69
2022-11-27T19:01:55.656Z,99620.69
2022-11-27T19:04:23.663Z,99623.16
2022-11-27T19:06:52.068Z,99616.91
2022-11-27T19:09:22.182Z,99618.25
2022-11-27T19:11:50.219Z,99622.66
2022-11-27T19:14:18.170Z,99614.78
2022-11-27T19:16:47.074Z,99614.16
2022-11-27T19:22:10.488Z,99613.28
2022-11-27T19:24:40.225Z,99619.38
2022-11-27T19:27:08.247Z,99617.38
2022-11-27T19:29:36.429Z,99613.88
2022-11-27T19:32:04.615Z,99609.06
2022-11-27T19:34:33.400Z,99612.41
2022-11-27T19:37:01.605Z,99610.53
2022-11-27T19:39:31.103Z,99604.34
2022-11-27T19:42:00.727Z,99604.59
2022-11-27T19:44:28.789Z,99604.59
2022-11-27T19:46:56.722Z,99602.47
2022-11-27T19:49:26.116Z,99608.84
2022-11-27T19:51:56.698Z,99613.97
2022-11-27T19:54:25.166Z,99617.97
2022-11-27T19:56:53.483Z,99615.19
2022-11-27T19:59:25.960Z,99621.28
2022-11-27T20:01:54.188Z,99633.91
2022-11-27T20:04:22.311Z,99642.31
2022-11-27T20:06:52.501Z,99648.25
2022-11-27T20:09:20.585Z,99654.03
2022-11-27T20:11:48.608Z,99658.94
2022-11-27T20:14:16.855Z,99661.16
2022-11-27T20:16:46.281Z,99660.41
2022-11-27T20:19:14.430Z,99656.69
2022-11-27T20:21:43.427Z,99655.34
2022-11-27T20:24:11.763Z,99647.25
2022-11-27T20:26:42.753Z,99646.91
2022-11-27T20:29:14.609Z,99648.22
2022-11-27T20:31:45.097Z,99654.66
2022-11-27T20:34:21.052Z,99656.69
2022-11-27T20:36:49.551Z,99661.66
2022-11-27T20:39:21.865Z,99655.47
2022-11-27T20:41:51.988Z,99649.72
2022-11-27T20:44:22.375Z,99656.88
2022-11-27T20:46:50.929Z,99665.19
2022-11-27T20:49:20.769Z,99668.22
2022-11-27T20:51:50.627Z,99669.63
2022-11-27T20:54:19.106Z,99676.47
2022-11-27T20:56:47.723Z,99683.16
2022-11-27T20:59:15.650Z,99692.59
2022-11-27T21:01:43.742Z,99693.88
2022-11-27T21:04:21.624Z,99670.16
2022-11-27T21:06:50.245Z,99666.72
2022-11-27T21:09:19.033Z,99655.03
2022-11-27T21:11:48.246Z,99663.38
2022-11-27T21:14:17.463Z,99654.44
2022-11-27T21:16:48.967Z,99651.13
2022-11-27T21:19:21.330Z,99653.16
2022-11-27T21:21:49.842Z,99641.53
2022-11-27T21:24:18.660Z,99637.91
2022-11-27T21:26:47.796Z,99631.88
2022-11-27T21:29:16.223Z,99629.00
2022-11-27T21:31:47.227Z,99621.31
2022-11-27T21:34:16.445Z,99617.63
2022-11-27T21:36:46.170Z,99616.25
2022-11-27T21:39:20.440Z,99630.38
2022-11-27T21:41:50.219Z,99622.53
2022-11-27T21:44:18.772Z,99603.63
2022-11-27T21:46:47.691Z,99604.66
2022-11-27T21:49:17.517Z,99615.41
2022-11-27T21:51:47.586Z,99609.38
2022-11-27T21:54:16.007Z,99607.00
2022-11-27T21:56:44.144Z,99605.69
2022-11-27T21:59:14.167Z,99611.88
2022-11-27T22:01:42.537Z,99614.13
2022-11-27T22:04:10.671Z,99612.91
2022-11-27T22:06:40.493Z,99612.69
2022-11-27T22:09:15.363Z,99607.16
2022-11-27T22:11:44.489Z,99601.19
2022-11-27T22:14:12.901Z,99592.03
2022-11-27T22:16:45.206Z,99580.31
2022-11-27T22:19:14.437Z,99564.75
2022-11-27T22:21:42.740Z,99567.31
2022-11-27T22:24:19.438Z,99555.88
2022-11-27T22:26:48.586Z,99579.53
2022-11-27T22:29:17.097Z,99596.53
2022-11-27T22:31:45.173Z,99605.84
2022-11-27T22:34:13.174Z,99612.69
2022-11-27T22:36:41.456Z,99613.88
2022-11-27T22:39:10.259Z,99617.97
2022-11-27T22:41:41.561Z,99610.81
2022-11-27T22:44:14.412Z,99606.78
2022-11-27T22:46:43.527Z,99606.28
2022-11-27T22:49:12.850Z,99612.22
2022-11-27T22:51:41.868Z,99612.25
2022-11-27T22:54:11.861Z,99614.34
2022-11-27T22:56:41.237Z,99618.44
2022-11-27T22:59:31.780Z,99618.34
2022-11-27T23:01:57.303Z,99630.41
2022-11-27T23:04:25.397Z,99631.84
2022-11-27T23:06:53.288Z,99635.38
2022-11-27T23:09:21.372Z,99652.47
2022-11-27T23:11:50.885Z,99649.00
2022-11-27T23:14:18.974Z,99664.88
2022-11-27T23:16:47.064Z,99671.94
2022-11-27T23:19:15.111Z,99675.75
2022-11-27T23:21:43.128Z,99677.44
2022-11-27T23:24:15.258Z,99680.13
2022-11-27T23:26:43.532Z,99681.88
2022-11-27T23:29:13.160Z,99698.66
2022-11-27T23:31:41.339Z,99690.78
2022-11-27T23:34:11.732Z,99696.50
2022-11-27T23:36:39.660Z,99696.13
2022-11-27T23:39:09.430Z,99697.50
2022-11-27T23:41:37.579Z,99699.56
2022-11-27T23:44:05.846Z,99699.63
2022-11-27T23:46:35.431Z,99711.81
2022-11-27T23:49:03.470Z,99706.75
2022-11-27T23:51:33.237Z,99712.25
2022-11-27T23:54:01.802Z,99715.94
2022-11-27T23:56:32.089Z,99729.84
2022-11-27T23:59:01.156Z,99737.44
